Time;durP1;ratioP1;P1;durP2;ratioP2;P2;SDS_P1;SDS_P2;PMS_P1;PMS_P2;Temp;Humidity;BMP_temperature;BMP_pressure;BME280_temperature;BME280_humidity;BME280_pressure;Samples;Min_cycle;Max_cycle;Signal;HPM_P1;HPM_P2
2022/04/09 00:00:43;;;;;;;46.67;20.70;;;;;;;13.18;58.30;97463.84;5076044;28;20408;-66
2022/04/09 00:03:10;;;;;;;46.40;21.38;;;;;;;13.06;58.50;97444.34;5109792;28;20054;-67
2022/04/09 00:05:35;;;;;;;53.92;23.48;;;;;;;12.92;59.28;97441.03;5109558;28;20458;-66
2022/04/09 00:08:02;;;;;;;53.28;23.98;;;;;;;13.18;66.93;97493.97;5075750;28;20041;-67
2022/04/09 00:10:27;;;;;;;51.50;24.15;;;;;;;13.22;59.29;97494.34;5109569;28;20128;-67
2022/04/09 00:12:53;;;;;;;51.42;24.20;;;;;;;13.14;58.91;97490.16;5075634;28;20181;-68
2022/04/09 00:15:19;;;;;;;47.40;22.05;;;;;;;12.94;59.88;97483.41;5110869;28;20039;-67
2022/04/09 00:17:46;;;;;;;55.10;24.90;;;;;;;13.16;59.22;97452.63;5109311;28;20133;-67
2022/04/09 00:20:13;;;;;;;44.90;21.77;;;;;;;13.45;58.84;97484.53;5109415;28;20039;-67
2022/04/09 00:22:39;;;;;;;46.88;20.90;;;;;;;13.44;58.65;97493.59;5095533;28;20496;-67
2022/04/09 00:25:07;;;;;;;40.22;18.63;;;;;;;13.45;58.04;97497.88;5096307;28;20146;-67
2022/04/09 00:27:32;;;;;;;19.88;10.13;;;;;;;13.04;58.01;97479.22;5096902;28;20088;-67
2022/04/09 00:29:58;;;;;;;13.35;7.40;;;;;;;12.88;58.62;97485.16;5114129;28;20048;-67
2022/04/09 00:32:24;;;;;;;10.73;6.38;;;;;;;12.78;58.46;97495.50;5080137;28;20081;-68
2022/04/09 00:34:49;;;;;;;5.90;3.95;;;;;;;12.55;58.04;97513.19;5096734;28;20035;-66
2022/04/09 00:37:15;;;;;;;5.45;3.65;;;;;;;12.57;58.08;97508.44;5096158;28;20046;-67
2022/04/09 00:39:41;;;;;;;4.70;2.50;;;;;;;12.18;58.26;97507.03;5079371;28;20048;-66
2022/04/09 00:42:14;;;;;;;7.60;3.00;;;;;;;12.58;57.65;97510.06;5079171;28;20039;-67
2022/04/09 00:44:41;;;;;;;4.93;3.25;;;;;;;12.53;57.41;97510.75;5114580;28;20077;-67
2022/04/09 00:47:10;;;;;;;3.38;2.67;;;;;;;12.62;56.84;97519.25;5096125;28;20078;-67
2022/04/09 00:49:37;;;;;;;2.88;2.30;;;;;;;12.56;56.66;97520.94;5113002;28;20047;-67
2022/04/09 00:52:08;;;;;;;3.65;2.38;;;;;;;12.53;56.99;97516.06;5079347;28;20039;-67
2022/04/09 00:54:37;;;;;;;2.90;2.30;;;;;;;12.41;56.67;97511.72;5079427;28;20110;-67
2022/04/09 00:57:05;;;;;;;4.40;2.60;;;;;;;12.78;56.83;97543.44;5079013;28;20452;-67
2022/04/09 00:59:34;;;;;;;5.47;2.65;;;;;;;12.39;56.17;97519.94;5078971;28;20756;-67
2022/04/09 01:02:00;;;;;;;3.92;2.55;;;;;;;12.57;56.35;97533.25;5112658;28;20039;-67
2022/04/09 01:04:25;;;;;;;3.25;2.80;;;;;;;12.67;56.54;97538.84;5062335;28;20081;-67
2022/04/09 01:06:51;;;;;;;3.75;2.90;;;;;;;12.64;56.58;97543.81;5096149;28;20047;-67
2022/04/09 01:09:17;;;;;;;4.88;2.65;;;;;;;12.52;55.85;97530.41;5112541;28;20501;-66
2022/04/09 01:11:43;;;;;;;5.18;2.42;;;;;;;12.79;55.74;97552.25;5078815;28;20538;-68
2022/04/09 01:14:12;;;;;;;3.42;2.53;;;;;;;12.75;55.94;97530.56;5078485;28;20036;-67
2022/04/09 01:16:38;;;;;;;5.50;2.72;;;;;;;12.65;55.93;97556.91;5112399;28;20566;-67
2022/04/09 01:19:04;;;;;;;2.63;2.40;;;;;;;12.54;55.88;97562.97;5112351;28;20564;-67
2022/04/09 01:21:34;;;;;;;5.95;2.90;;;;;;;12.58;56.13;97556.16;5079748;28;20043;-67
2022/04/09 01:24:04;;;;;;;7.85;2.83;;;;;;;12.53;55.87;97573.84;5112328;28;20518;-68
2022/04/09 01:26:31;;;;;;;6.50;2.95;;;;;;;12.50;55.99;97584.94;5095450;28;20141;-67
2022/04/09 01:28:58;;;;;;;4.32;2.80;;;;;;;12.66;56.19;97587.00;5078520;28;20047;-67
2022/04/09 01:31:24;;;;;;;4.30;3.63;;;;;;;12.46;55.79;97573.91;5095861;28;20527;-67
2022/04/09 01:33:50;;;;;;;11.43;3.90;;;;;;;12.45;56.04;97588.25;5078260;28;20044;-67
2022/04/09 01:36:15;;;;;;;3.92;3.13;;;;;;;12.24;56.16;97596.63;5078340;28;20047;-67
2022/04/09 01:38:41;;;;;;;4.60;2.72;;;;;;;12.21;56.11;97618.34;5078307;28;20031;-67
2022/04/09 01:41:07;;;;;;;4.78;3.15;;;;;;;11.98;56.37;97617.31;5078104;28;20043;-67
2022/04/09 01:43:55;;;;;;;5.00;2.70;;;;;;;12.08;56.08;97618.47;5098430;28;20054;-67
2022/04/09 01:46:22;;;;;;;5.80;2.80;;;;;;;11.92;56.11;97612.88;5094902;28;20047;-67
2022/04/09 01:48:48;;;;;;;5.43;2.88;;;;;;;11.90;55.91;97619.19;5094829;28;20061;-67
2022/04/09 01:51:14;;;;;;;4.57;3.05;;;;;;;11.71;56.29;97629.97;5111786;28;20137;-67
2022/04/09 01:53:40;;;;;;;3.83;2.80;;;;;;;11.69;56.07;97634.66;5077997;28;20031;-67
2022/04/09 01:56:06;;;;;;;5.25;3.30;;;;;;;11.76;55.89;97659.41;5077757;28;20054;-68
2022/04/09 01:58:36;;;;;;;4.03;2.55;;;;;;;11.62;55.97;97661.28;5111735;28;20122;-67
2022/04/09 02:01:02;;;;;;;4.18;3.08;;;;;;;11.82;55.72;97669.97;5094931;28;20040;-67
2022/04/09 02:03:29;;;;;;;8.40;3.08;;;;;;;11.82;55.53;97675.28;5111786;28;20112;-68
2022/04/09 02:05:56;;;;;;;3.80;3.15;;;;;;;11.99;55.32;97670.31;5061725;28;20047;-68
2022/04/09 02:08:21;;;;;;;3.10;2.80;;;;;;;11.99;54.73;97683.59;5094393;28;20046;-67
2022/04/09 02:10:48;;;;;;;5.85;2.80;;;;;;;11.86;55.10;97673.03;5094390;28;20047;-67
2022/04/09 02:13:18;;;;;;;4.55;3.40;;;;;;;11.87;55.30;97661.34;5111120;28;20043;-67
2022/04/09 02:15:44;;;;;;;7.82;3.70;;;;;;;11.87;55.07;97691.44;5078169;28;20044;-67
2022/04/09 02:18:11;;;;;;;5.45;3.00;;;;;;;11.93;54.85;97689.78;5077604;28;20416;-67
2022/04/09 02:20:36;;;;;;;6.22;2.97;;;;;;;11.70;54.67;97670.88;5111352;28;20078;-67
2022/04/09 02:23:02;;;;;;;5.03;2.90;;;;;;;12.03;54.48;97683.97;5077684;28;20594;-67
2022/04/09 02:25:28;;;;;;;4.00;3.10;;;;;;;12.05;54.11;97700.53;5077515;28;20094;-67
2022/04/09 02:27:54;;;;;;;4.50;3.38;;;;;;;12.10;53.97;97698.06;5060938;28;20071;-67
2022/04/09 02:30:22;;;;;;;4.30;3.00;;;;;;;11.99;54.28;97694.25;5077561;28;20062;-67
2022/04/09 02:32:53;;;;;;;5.93;2.93;;;;;;;12.02;53.92;97701.81;5078788;28;20040;-67
2022/04/09 02:35:26;;;;;;;6.63;3.28;;;;;;;11.29;53.86;97710.25;5078885;28;20876;-67
2022/04/09 02:37:53;;;;;;;4.00;3.10;;;;;;;11.63;53.69;97709.97;5094382;28;20253;-70
2022/04/09 02:40:20;;;;;;;4.80;3.13;;;;;;;11.66;53.65;97677.63;5111829;28;20100;-67
2022/04/09 02:42:46;;;;;;;3.97;3.10;;;;;;;12.03;53.45;97707.91;5060500;28;20040;-67
2022/04/09 02:45:12;;;;;;;4.47;3.15;;;;;;;12.09;53.22;97707.88;5093190;28;20094;-67
2022/04/09 02:47:40;;;;;;;3.58;3.00;;;;;;;11.95;52.66;97685.03;5077288;28;20043;-67
2022/04/09 02:50:12;;;;;;;5.93;3.20;;;;;;;11.92;53.01;97714.72;5094346;28;20051;-67
2022/04/09 02:52:40;;;;;;;4.53;3.22;;;;;;;12.19;53.13;97716.22;5093495;28;20048;-67
2022/04/09 02:55:08;;;;;;;4.75;3.30;;;;;;;11.99;52.47;97723.50;5110645;28;20420;-67
2022/04/09 02:57:37;;;;;;;4.65;3.03;;;;;;;11.88;53.12;97724.19;5110576;28;20043;-67
2022/04/09 03:00:06;;;;;;;5.75;3.47;;;;;;;12.14;52.77;97720.53;5093873;28;20130;-67
2022/04/09 03:02:36;;;;;;;6.82;3.42;;;;;;;12.25;52.60;97730.50;5110366;28;20043;-68
2022/04/09 03:05:04;;;;;;;4.25;3.22;;;;;;;12.23;51.97;97744.03;5093910;28;20047;-67
2022/04/09 03:07:31;;;;;;;4.60;3.40;;;;;;;12.19;51.53;97739.34;5106698;28;20046;-67
2022/04/09 03:09:56;;;;;;;4.10;3.17;;;;;;;12.11;51.04;97743.09;5098505;27;20058;-67
2022/04/09 03:12:22;;;;;;;6.68;3.08;;;;;;;12.15;51.97;97741.63;5092947;28;20047;-67
2022/04/09 03:14:48;;;;;;;3.53;2.85;;;;;;;12.13;51.59;97733.03;5072624;28;20047;-67
2022/04/09 03:17:14;;;;;;;7.20;2.78;;;;;;;12.18;51.38;97745.72;5073221;28;20139;-67
2022/04/09 03:19:41;;;;;;;3.60;3.03;;;;;;;11.89;51.20;97726.63;5072265;28;20044;-67
2022/04/09 03:22:09;;;;;;;4.22;2.90;;;;;;;11.76;51.32;97726.69;5056239;28;20089;-67
2022/04/09 03:24:37;;;;;;;3.58;3.10;;;;;;;12.06;51.12;97750.88;5073278;28;20084;-68
2022/04/09 03:27:03;;;;;;;4.03;3.13;;;;;;;12.04;50.82;97747.59;5071881;28;20517;-68
2022/04/09 03:29:30;;;;;;;4.72;3.25;;;;;;;11.84;50.79;97750.38;5070100;28;20445;-68
2022/04/09 03:31:58;;;;;;;4.93;3.35;;;;;;;11.89;51.09;97763.03;5075259;28;20045;-67
2022/04/09 03:34:29;;;;;;;4.18;3.30;;;;;;;11.89;52.06;97763.03;5089407;28;20051;-68
2022/04/09 03:36:56;;;;;;;5.35;3.00;;;;;;;11.91;51.31;97750.34;5106669;28;20027;-68
2022/04/09 03:39:23;;;;;;;4.28;3.20;;;;;;;11.81;50.38;97747.31;5100281;28;20066;-69
2022/04/09 03:41:49;;;;;;;4.05;2.78;;;;;;;11.83;50.55;97761.22;5091835;28;20054;-68
2022/04/09 03:44:15;;;;;;;4.10;3.10;;;;;;;11.94;50.24;97765.88;5091827;28;20036;-68
2022/04/09 03:46:46;;;;;;;6.07;3.50;;;;;;;11.77;50.42;97770.06;5109250;28;20058;-69
2022/04/09 03:49:16;;;;;;;3.95;3.17;;;;;;;11.57;50.77;97770.09;5075479;28;20059;-68
2022/04/09 03:51:43;;;;;;;5.55;3.38;;;;;;;11.88;50.33;97785.34;5075600;28;20047;-68
2022/04/09 03:54:11;;;;;;;3.50;3.13;;;;;;;12.01;49.93;97793.25;5093498;28;20066;-68
2022/04/09 03:56:40;;;;;;;4.47;2.90;;;;;;;12.04;49.90;97811.47;5092214;28;20500;-67
2022/04/09 03:59:06;;;;;;;3.40;2.80;;;;;;;12.23;49.97;97818.53;5076694;28;20405;-68
2022/04/09 04:01:33;;;;;;;5.88;2.90;;;;;;;12.18;49.37;97826.34;5076207;28;20040;-68
2022/04/09 04:04:05;;;;;;;3.65;3.00;;;;;;;12.29;49.15;97820.34;5109794;28;20054;-68
2022/04/09 04:06:31;;;;;;;3.95;2.95;;;;;;;12.28;49.16;97832.03;5076401;28;20062;-67
2022/04/09 04:08:58;;;;;;;4.15;2.80;;;;;;;12.30;49.06;97824.63;5076034;28;20050;-68
2022/04/09 04:11:24;;;;;;;3.17;2.60;;;;;;;12.52;49.03;97844.59;5092657;28;20047;-68
2022/04/09 04:13:51;;;;;;;3.58;2.90;;;;;;;12.49;48.75;97834.38;5092886;28;20075;-68
2022/04/09 04:16:18;;;;;;;3.50;2.75;;;;;;;12.56;48.60;97860.97;5059480;28;20032;-67
2022/04/09 04:18:44;;;;;;;5.20;3.40;;;;;;;12.41;48.66;97852.47;5092623;28;20063;-67
2022/04/09 04:21:11;;;;;;;3.83;3.08;;;;;;;12.39;49.10;97863.31;5092636;28;20056;-67
2022/04/09 04:23:39;;;;;;;8.02;3.15;;;;;;;12.42;49.33;97873.53;5109481;28;20076;-68
2022/04/09 04:26:16;;;;;;;4.63;3.05;;;;;;;12.22;49.26;97864.00;5093688;28;20063;-67
2022/04/09 04:28:42;;;;;;;4.35;3.72;;;;;;;12.24;49.46;97881.38;5092398;28;20040;-68
2022/04/09 04:31:08;;;;;;;4.50;3.40;;;;;;;12.35;49.12;97880.72;5092560;28;20097;-68
2022/04/09 04:33:36;;;;;;;3.58;3.10;;;;;;;12.27;48.91;97865.00;5108939;28;20048;-68
2022/04/09 04:36:04;;;;;;;3.78;3.08;;;;;;;12.48;49.16;97885.19;5109489;28;20043;-67
2022/04/09 04:38:34;;;;;;;16.27;10.00;;;;;;;12.39;48.96;97867.81;5093361;28;20043;-68
2022/04/09 04:41:02;;;;;;;6.82;3.80;;;;;;;12.30;48.88;97888.53;5092546;28;20081;-67
2022/04/09 04:43:29;;;;;;;3.90;3.30;;;;;;;12.31;48.99;97900.81;5109053;28;20048;-67
2022/04/09 04:45:55;;;;;;;3.72;2.90;;;;;;;12.41;49.10;97893.19;5109774;28;20142;-67
2022/04/09 04:48:21;;;;;;;3.88;3.17;;;;;;;12.69;48.67;97898.16;5091648;28;20065;-68
2022/04/09 04:50:47;;;;;;;5.00;3.38;;;;;;;12.89;48.18;97909.53;5092008;28;20130;-68
2022/04/09 04:53:14;;;;;;;3.72;3.10;;;;;;;12.96;47.63;97920.97;5092251;28;20097;-67
2022/04/09 04:55:45;;;;;;;;;;;;;;;13.07;47.18;97926.44;5092156;28;20401;-67
2022/04/09 04:58:11;;;;;;;5.32;3.10;;;;;;;12.69;47.84;97904.31;5073805;28;19923;-67
2022/04/09 05:00:45;;;;;;;3.88;2.95;;;;;;;12.81;47.50;97920.44;5099609;28;20039;-67
2022/04/09 05:03:16;;;;;;;3.58;3.00;;;;;;;12.68;47.70;97923.19;5099567;28;20047;-67
2022/04/09 05:05:52;;;;;;;5.25;3.60;;;;;;;12.60;48.21;97937.56;5090388;28;20070;-66
2022/04/09 05:08:18;;;;;;;12.43;7.60;;;;;;;12.56;48.16;97941.66;5108566;28;20035;-69
2022/04/09 05:10:44;;;;;;;4.03;3.42;;;;;;;12.57;48.24;97945.97;5110813;28;20100;-66
2022/04/09 05:13:12;;;;;;;3.55;3.25;;;;;;;12.50;48.37;97947.81;5087845;28;20042;-66
2022/04/09 05:15:40;;;;;;;3.85;3.17;;;;;;;12.49;48.40;97950.69;5075707;28;20123;-67
2022/04/09 05:18:06;;;;;;;4.70;3.28;;;;;;;12.37;48.63;97961.19;5075232;28;20154;-68
2022/04/09 05:20:34;;;;;;;4.22;3.78;;;;;;;12.42;48.97;97957.91;5092287;28;20113;-67
2022/04/09 05:23:03;;;;;;;6.72;4.05;;;;;;;12.40;49.05;97968.78;5075948;28;20044;-66
2022/04/09 05:25:32;;;;;;;7.45;4.22;;;;;;;12.26;49.33;97961.84;5075232;28;20457;-66
2022/04/09 05:28:04;;;;;;;6.53;3.78;;;;;;;12.52;49.17;97969.75;5092093;28;20046;-67
2022/04/09 05:30:35;;;;;;;6.32;4.38;;;;;;;12.21;49.63;97977.63;5076107;28;20501;-67
2022/04/09 05:33:02;;;;;;;6.18;4.07;;;;;;;12.45;49.77;97976.94;5092070;28;20047;-66
2022/04/09 05:35:29;;;;;;;4.95;3.80;;;;;;;12.45;49.55;97974.28;5091674;28;20053;-66
2022/04/09 05:37:55;;;;;;;6.28;3.97;;;;;;;12.44;49.28;97954.00;5060253;28;20134;-67
2022/04/09 05:40:25;;;;;;;5.90;3.70;;;;;;;12.44;49.05;97964.66;5103225;28;20051;-67
2022/04/09 05:42:56;;;;;;;3.95;3.55;;;;;;;12.63;48.83;97998.38;5094424;28;20496;-67
2022/04/09 05:45:23;;;;;;;5.53;3.83;;;;;;;12.32;49.00;97982.31;5077439;28;20039;-67
2022/04/09 05:47:49;;;;;;;4.75;3.50;;;;;;;12.28;49.28;97991.75;5094047;28;20130;-67
2022/04/09 05:50:20;;;;;;;6.30;3.60;;;;;;;12.52;49.08;98023.00;5111143;28;20119;-66
2022/04/09 05:52:48;;;;;;;6.95;3.40;;;;;;;12.49;48.95;98023.41;5093767;28;20484;-67
2022/04/09 05:55:15;;;;;;;4.03;3.35;;;;;;;12.72;48.65;98039.72;5094162;28;20096;-66
2022/04/09 05:57:44;;;;;;;4.00;3.22;;;;;;;12.55;47.77;98027.06;5094879;28;20357;-66
2022/04/09 06:00:13;;;;;;;5.57;3.30;;;;;;;12.66;48.29;98058.41;5077744;28;20044;-66
2022/04/09 06:02:45;;;;;;;6.03;4.00;;;;;;;12.52;48.34;98064.78;5062586;28;20108;-67
2022/04/09 06:05:24;;;;;;;6.60;3.95;;;;;;;12.26;49.08;98070.97;5095566;28;20043;-67
2022/04/09 06:07:50;;;;;;;6.65;3.88;;;;;;;12.48;47.96;98080.38;5094660;28;20074;-66
2022/04/09 06:10:17;;;;;;;5.53;3.58;;;;;;;12.52;48.24;98068.25;5076986;28;20040;-67
2022/04/09 06:12:44;;;;;;;4.32;3.50;;;;;;;12.12;48.69;98090.63;5077465;28;20071;-67
2022/04/09 06:15:15;;;;;;;9.10;3.38;;;;;;;11.99;48.39;98085.31;5094416;28;20104;-67
2022/04/09 06:17:46;;;;;;;8.25;3.70;;;;;;;12.01;48.74;98098.41;5078175;28;20042;-67
2022/04/09 06:20:12;;;;;;;6.00;4.35;;;;;;;12.21;48.42;98097.38;5092719;28;20420;-66
2022/04/09 06:22:41;;;;;;;5.55;3.45;;;;;;;12.14;48.30;98106.38;5111003;28;20039;-67
2022/04/09 06:25:08;;;;;;;5.85;3.85;;;;;;;12.34;48.30;98097.38;5076866;28;20438;-67
2022/04/09 06:27:39;;;;;;;5.78;4.25;;;;;;;12.67;47.30;98111.44;5094316;28;20664;-68
2022/04/09 06:30:06;;;;;;;5.10;3.45;;;;;;;12.51;47.61;98114.56;5077265;28;20420;-69
2022/04/09 06:32:33;;;;;;;5.38;4.00;;;;;;;11.99;48.56;98109.28;5076309;28;20390;-66
2022/04/09 06:34:59;;;;;;;6.80;3.40;;;;;;;12.42;48.10;98115.81;5094096;28;20092;-67
2022/04/09 06:37:26;;;;;;;9.35;3.90;;;;;;;12.24;48.50;98115.59;5088877;28;20050;-66
2022/04/09 06:39:55;;;;;;;6.85;3.58;;;;;;;12.55;47.38;98110.47;5110726;28;20412;-67
2022/04/09 06:42:20;;;;;;;5.50;3.60;;;;;;;12.40;47.54;98117.84;5093246;28;20035;-66
2022/04/09 06:45:05;;;;;;;4.10;3.50;;;;;;;12.73;46.85;98117.81;5081920;28;20047;-67
2022/04/09 06:47:51;;;;;;;8.25;4.20;;;;;;;12.64;46.50;98103.88;5082111;28;20108;-66
2022/04/09 06:50:17;;;;;;;6.10;3.33;;;;;;;12.88;46.40;98129.03;5110582;28;20493;-66
2022/04/09 06:52:43;;;;;;;6.57;3.83;;;;;;;12.75;46.23;98132.53;5076737;28;20185;-67
2022/04/09 06:55:20;;;;;;;5.75;3.65;;;;;;;12.73;46.36;98142.59;5109920;28;20488;-67
2022/04/09 06:57:48;;;;;;;8.85;4.45;;;;;;;12.79;46.30;98147.06;5093945;28;20047;-66
2022/04/09 07:00:19;;;;;;;;;;;;;;;12.90;46.34;98164.28;5094954;28;20513;-67
2022/04/09 07:02:45;;;;;;;7.40;3.80;;;;;;;12.76;46.46;98163.47;5093661;28;19930;-66
2022/04/09 07:05:10;;;;;;;6.43;4.72;;;;;;;12.49;46.68;98132.59;5091159;28;20070;-66
2022/04/09 07:07:36;;;;;;;7.55;3.90;;;;;;;12.64;46.53;98154.47;5076300;28;20036;-66
2022/04/09 07:10:09;;;;;;;5.25;3.33;;;;;;;12.87;45.95;98162.84;5091772;28;20459;-67
2022/04/09 07:12:37;;;;;;;5.93;3.50;;;;;;;12.59;46.50;98167.59;5090558;28;20040;-66
2022/04/09 07:15:04;;;;;;;7.32;3.63;;;;;;;12.58;46.68;98151.81;5099743;28;20400;-66
2022/04/09 07:17:31;;;;;;;4.40;3.70;;;;;;;12.67;46.55;98185.22;5092727;28;20039;-66
2022/04/09 07:20:01;;;;;;;5.78;4.35;;;;;;;12.71;46.40;98189.09;5110080;28;20306;-66
2022/04/09 07:22:28;;;;;;;8.35;3.70;;;;;;;12.88;46.14;98185.81;5093065;28;20047;-66
2022/04/09 07:24:54;;;;;;;5.30;3.67;;;;;;;12.50;46.32;98176.81;5075510;28;20051;-66
2022/04/09 07:27:20;;;;;;;5.57;4.07;;;;;;;13.09;45.86;98201.59;5109596;28;20447;-66
2022/04/09 07:29:46;;;;;;;5.90;3.72;;;;;;;12.58;46.61;98205.91;5076539;28;20411;-66
2022/04/09 07:32:12;;;;;;;5.05;3.75;;;;;;;12.27;47.23;98196.91;5092762;28;20050;-66
2022/04/09 07:34:38;;;;;;;5.15;3.80;;;;;;;12.61;46.71;98204.69;5092288;28;20051;-67
2022/04/09 07:37:04;;;;;;;5.15;3.90;;;;;;;12.78;46.43;98216.56;5075947;28;20043;-66
2022/04/09 07:39:30;;;;;;;6.65;3.88;;;;;;;12.96;45.66;98209.56;5109470;28;20050;-66
2022/04/09 07:41:55;;;;;;;8.38;4.85;;;;;;;13.12;45.50;98235.81;5109899;28;20042;-66
2022/04/09 07:44:23;;;;;;;5.30;3.50;;;;;;;13.31;44.81;98232.31;5075926;28;20047;-69
2022/04/09 07:46:50;;;;;;;4.75;3.40;;;;;;;12.95;45.72;98245.25;5059125;28;20047;-69
2022/04/09 07:49:15;;;;;;;7.78;3.15;;;;;;;12.98;45.61;98244.00;5057398;28;20500;-68
2022/04/09 07:51:43;;;;;;;7.90;3.55;;;;;;;13.19;45.58;98249.13;5063764;28;20138;-68
2022/04/09 07:54:10;;;;;;;5.05;4.05;;;;;;;13.09;45.23;98257.56;5104218;28;20044;-68
2022/04/09 07:56:35;;;;;;;8.13;3.85;;;;;;;12.95;45.56;98255.91;5092467;28;20103;-67
2022/04/09 07:59:01;;;;;;;5.85;4.20;;;;;;;12.81;46.23;98256.94;5092425;28;20039;-67
2022/04/09 08:01:29;;;;;;;7.22;4.00;;;;;;;12.96;46.36;98254.84;5059281;28;20066;-67
2022/04/09 08:03:56;;;;;;;7.07;4.03;;;;;;;12.75;46.35;98263.06;5092759;28;20051;-67
2022/04/09 08:06:22;;;;;;;5.47;4.13;;;;;;;12.63;46.72;98267.38;5058359;28;20048;-66
2022/04/09 08:08:47;;;;;;;22.08;13.27;;;;;;;12.58;46.68;98259.19;5075533;28;20043;-67
2022/04/09 08:11:13;;;;;;;4.00;3.45;;;;;;;12.54;46.40;98267.78;5075348;28;20055;-67
2022/04/09 08:13:39;;;;;;;6.03;3.60;;;;;;;12.66;46.08;98266.97;5058927;28;20040;-67
2022/04/09 08:16:04;;;;;;;5.43;4.00;;;;;;;12.71;46.47;98269.84;5075858;28;20083;-67
2022/04/09 08:18:30;;;;;;;4.70;3.42;;;;;;;12.78;45.94;98281.31;5074486;28;20462;-67
2022/04/09 08:20:56;;;;;;;5.03;3.33;;;;;;;12.95;45.37;98274.56;5075732;28;20044;-68
2022/04/09 08:23:21;;;;;;;5.80;3.65;;;;;;;13.27;44.60;98281.72;5075562;28;20035;-67
2022/04/09 08:25:49;;;;;;;6.35;3.40;;;;;;;13.46;44.14;98272.03;5092322;28;20083;-67
2022/04/09 08:28:17;;;;;;;7.93;3.58;;;;;;;13.21;45.45;98284.38;5057785;28;20044;-67
2022/04/09 08:30:46;;;;;;;13.93;3.70;;;;;;;13.72;44.44;98290.63;5074758;28;20584;-68
2022/04/09 08:33:13;;;;;;;5.47;3.63;;;;;;;13.54;44.14;98290.50;5090925;28;20086;-67
2022/04/09 08:35:40;;;;;;;12.32;3.92;;;;;;;13.98;44.22;98303.88;5087819;28;20363;-68
2022/04/09 08:38:06;;;;;;;12.77;3.40;;;;;;;13.65;43.10;98297.84;5106237;28;20471;-67
2022/04/09 08:40:33;;;;;;;4.22;3.45;;;;;;;13.70;43.67;98276.69;5074289;28;20157;-68
2022/04/09 08:42:59;;;;;;;3.90;3.20;;;;;;;13.95;43.11;98298.97;5110129;28;20082;-68
2022/04/09 08:45:25;;;;;;;5.90;2.65;;;;;;;14.17;42.37;98294.13;5095138;28;20458;-68
2022/04/09 08:47:51;;;;;;;5.63;3.35;;;;;;;14.41;41.90;98294.25;5060876;28;20047;-68
2022/04/09 08:50:17;;;;;;;4.80;3.63;;;;;;;14.44;41.51;98311.69;5077979;28;20039;-68
2022/04/09 08:52:44;;;;;;;5.55;3.00;;;;;;;14.13;41.87;98325.78;5093914;28;20043;-67
2022/04/09 08:55:13;;;;;;;3.50;3.20;;;;;;;13.73;42.73;98310.94;5061435;28;20505;-68
2022/04/09 08:57:40;;;;;;;6.15;3.25;;;;;;;13.57;42.97;98304.25;5078569;28;20036;-68
2022/04/09 09:00:12;;;;;;;6.57;3.90;;;;;;;13.75;43.20;98313.41;5112560;28;20067;-67
2022/04/09 09:02:48;;;;;;;3.80;3.40;;;;;;;13.66;42.85;98285.31;5112094;28;20043;-68
2022/04/09 09:05:34;;;;;;;4.80;3.10;;;;;;;13.80;43.01;98313.59;5060977;28;20039;-69
2022/04/09 09:08:00;;;;;;;6.13;3.83;;;;;;;13.53;43.10;98307.50;5077734;28;20387;-68
2022/04/09 09:10:27;;;;;;;5.13;2.97;;;;;;;13.58;42.88;98315.72;5112616;28;20043;-68
2022/04/09 09:13:04;;;;;;;4.20;3.20;;;;;;;13.81;43.11;98304.56;5093340;28;20047;-67
2022/04/09 09:15:31;;;;;;;4.25;2.90;;;;;;;14.08;41.81;98316.78;5111671;28;20065;-68
2022/04/09 09:17:58;;;;;;;9.27;3.45;;;;;;;14.67;41.33;98318.13;5111501;28;20090;-69
2022/04/09 09:20:24;;;;;;;4.82;3.00;;;;;;;15.15;40.13;98335.25;5088804;28;20127;-68
2022/04/09 09:22:51;;;;;;;6.70;3.10;;;;;;;15.61;38.52;98320.63;5071195;28;20131;-68
2022/04/09 09:25:17;;;;;;;5.57;3.30;;;;;;;16.29;37.02;98348.88;5071036;28;20052;-69
2022/04/09 09:27:43;;;;;;;7.00;3.10;;;;;;;16.69;36.17;98348.19;5070699;28;20085;-69
2022/04/09 09:30:11;;;;;;;5.85;3.15;;;;;;;16.76;35.41;98356.09;5037747;28;20043;-69
2022/04/09 09:32:41;;;;;;;4.57;2.78;;;;;;;17.05;35.91;98341.03;5089592;28;20048;-70
2022/04/09 09:35:09;;;;;;;4.75;2.60;;;;;;;16.97;34.71;98346.72;5072096;28;20043;-71
2022/04/09 09:37:35;;;;;;;5.32;2.90;;;;;;;16.46;35.09;98326.66;5087964;28;20101;-69
2022/04/09 09:40:01;;;;;;;7.93;2.40;;;;;;;17.28;34.01;98349.13;5088508;28;20401;-69
2022/04/09 09:42:28;;;;;;;2.90;2.20;;;;;;;17.37;33.47;98339.69;5107375;28;20796;-69
2022/04/09 09:44:54;;;;;;;3.20;2.30;;;;;;;17.76;33.12;98337.13;5088155;28;20050;-70
2022/04/09 09:47:23;;;;;;;6.03;2.50;;;;;;;18.63;31.38;98346.75;5090794;28;20507;-71
2022/04/09 09:49:55;;;;;;;3.42;2.80;;;;;;;19.64;30.50;98358.22;5090125;28;20050;-71
2022/04/09 09:52:28;;;;;;;2.88;2.38;;;;;;;20.64;28.22;98369.53;5108465;28;20040;-71
2022/04/09 09:54:55;;;;;;;3.67;2.00;;;;;;;20.29;28.06;98290.09;5091347;28;20130;-71
2022/04/09 09:57:22;;;;;;;2.40;2.20;;;;;;;20.95;27.22;98287.84;5089047;28;20133;-70
2022/04/09 09:59:49;;;;;;;2.25;1.70;;;;;;;22.69;24.63;98277.44;5090908;28;20055;-70
2022/04/09 10:02:20;;;;;;;3.80;2.15;;;;;;;23.54;24.15;98269.31;5108636;28;20043;-71
2022/04/09 10:04:47;;;;;;;3.63;2.17;;;;;;;24.61;22.17;98260.50;5111012;28;20148;-70
2022/04/09 10:07:15;;;;;;;2.20;2.00;;;;;;;26.84;18.72;98264.16;5091732;28;20090;-71
2022/04/09 10:09:42;;;;;;;4.53;2.33;;;;;;;28.68;17.29;98267.25;5090792;28;20087;-70
2022/04/09 10:12:18;;;;;;;3.85;1.80;;;;;;;31.37;14.44;98259.16;5090653;28;20046;-73
2022/04/09 10:14:54;;;;;;;4.63;1.92;;;;;;;30.61;14.76;98279.94;5107668;28;20040;-71
2022/04/09 10:17:20;;;;;;;3.35;2.10;;;;;;;28.74;17.08;98270.69;5108979;28;20074;-71
2022/04/09 10:19:55;;;;;;;4.45;2.60;;;;;;;29.72;16.51;98259.50;5090034;28;20053;-71
2022/04/09 10:22:35;;;;;;;2.55;1.90;;;;;;;30.48;14.37;98280.88;5109001;28;20039;-72
2022/04/09 10:25:01;;;;;;;3.65;2.08;;;;;;;30.59;15.18;98271.25;5107861;28;20523;-71
2022/04/09 10:27:40;;;;;;;3.60;1.83;;;;;;;31.09;13.40;98266.13;5108426;28;20134;-72
2022/04/09 10:30:16;;;;;;;4.22;2.22;;;;;;;31.73;13.36;98292.50;5090353;28;20047;-73
2022/04/09 10:32:46;;;;;;;5.70;2.10;;;;;;;32.68;13.04;98288.19;5090079;28;20048;-71
2022/04/09 10:35:38;;;;;;;2.38;1.75;;;;;;;34.77;11.59;98281.38;5107632;28;20400;-72
2022/04/09 10:38:10;;;;;;;4.70;1.80;;;;;;;35.57;10.74;98277.47;5107343;28;20467;-72
2022/04/09 10:40:45;;;;;;;1.95;1.55;;;;;;;35.44;10.35;98265.66;5090118;28;20043;-72
2022/04/09 10:43:37;;;;;;;2.83;1.95;;;;;;;33.94;11.08;98259.03;5073486;28;20039;-72
2022/04/09 10:48:41;;;;;;;4.35;3.10;;;;;;;36.01;9.80;98258.91;5089975;28;20077;-71
2022/04/09 10:51:08;;;;;;;4.57;2.22;;;;;;;37.03;9.57;98237.97;5108003;28;20044;-73
2022/04/09 10:53:35;;;;;;;4.78;2.20;;;;;;;38.84;8.45;98251.84;5073168;28;20048;-73
2022/04/09 10:56:31;;;;;;;2.75;2.08;;;;;;;40.36;7.34;98249.53;5104410;28;20044;-73
2022/04/09 10:59:08;;;;;;;9.25;2.50;;;;;;;40.34;6.90;98256.66;5106083;28;20768;-73
2022/04/09 11:01:46;;;;;;;7.35;2.00;;;;;;;39.94;7.40;98261.09;5106653;28;20047;-71
2022/04/09 11:04:32;;;;;;;7.10;2.20;;;;;;;40.79;6.84;98251.44;5090112;28;20089;-71
2022/04/09 11:07:14;;;;;;;4.63;2.28;;;;;;;41.31;6.38;98264.81;5123607;27;20111;-72
2022/04/09 11:10:00;;;;;;;3.75;2.35;;;;;;;41.57;6.23;98258.94;5106332;28;20055;-68
2022/04/09 11:12:28;;;;;;;5.13;2.20;;;;;;;40.76;6.67;98260.56;5105853;28;20047;-69
2022/04/09 11:14:58;;;;;;;2.47;1.73;;;;;;;40.92;6.50;98263.03;5089766;28;20051;-68
2022/04/09 11:17:38;;;;;;;4.00;1.70;;;;;;;40.00;6.75;98256.78;5106390;28;20039;-69
2022/04/09 11:20:09;;;;;;;;;;;;;;;40.27;6.94;98260.22;5089177;28;20126;-69
2022/04/09 11:22:38;;;;;;;6.60;2.38;;;;;;;41.14;6.38;98259.97;5056140;28;19966;-69
2022/04/09 11:25:05;;;;;;;19.37;1.80;;;;;;;39.90;6.40;98262.25;5089219;28;20083;-69
2022/04/09 11:27:31;;;;;;;4.05;1.80;;;;;;;38.18;7.50;98255.19;5106064;28;20692;-68
2022/04/09 11:29:57;;;;;;;4.22;1.90;;;;;;;35.50;9.18;98255.19;5087983;28;20052;-69
2022/04/09 11:32:24;;;;;;;5.70;2.30;;;;;;;34.37;10.21;98223.41;5054121;28;20039;-68
2022/04/09 11:34:56;;;;;;;5.85;2.00;;;;;;;32.82;11.02;98219.16;5071698;28;20091;-68
2022/04/09 11:37:23;;;;;;;4.32;2.03;;;;;;;32.02;12.20;98245.06;5072464;28;20043;-67
2022/04/09 11:39:50;;;;;;;6.10;2.50;;;;;;;30.26;13.23;98226.19;5106190;28;20134;-67
2022/04/09 11:42:16;;;;;;;6.13;2.20;;;;;;;28.61;14.53;98245.03;5071937;28;20043;-68